Time;durP1;ratioP1;P1;durP2;ratioP2;P2;SDS_P1;SDS_P2;PMS_P1;PMS_P2;Temp;Humidity;BMP_temperature;BMP_pressure;BME280_temperature;BME280_humidity;BME280_pressure;Samples;Min_cycle;Max_cycle;Signal;HPM_P1;HPM_P2
2023/07/06 00:00:19;;;;;;;7.63;2.10;;;;;;;;;;4990254;27;94219;-80
2023/07/06 00:02:46;;;;;;;7.22;2.33;;;;;;;;;;4989802;28;92741;-80
2023/07/06 00:05:13;;;;;;;5.13;2.30;;;;;;;;;;4989011;27;92432;-81
2023/07/06 00:07:39;;;;;;;6.75;2.50;;;;;;;;;;4972348;28;95736;-80
2023/07/06 00:10:06;;;;;;;7.22;2.45;;;;;;;;;;4990309;28;92376;-80
2023/07/06 00:12:34;;;;;;;6.38;2.40;;;;;;;;;;4990199;27;93143;-81
2023/07/06 00:15:00;;;;;;;6.85;2.70;;;;;;;;;;4987097;28;94889;-80
2023/07/06 00:17:27;;;;;;;7.80;2.60;;;;;;;;;;4988589;27;96164;-79
2023/07/06 00:19:54;;;;;;;7.65;2.60;;;;;;;;;;4992138;28;93166;-80
2023/07/06 00:22:20;;;;;;;6.20;2.60;;;;;;;;;;4989285;28;92734;-80
2023/07/06 00:24:48;;;;;;;5.65;2.50;;;;;;;;;;4987481;28;94480;-80
2023/07/06 00:27:15;;;;;;;;;;;;;;;;;;4997595;28;93208;-79
2023/07/06 00:29:56;;;;;;;9.48;2.53;;;;;;;;;;4990909;28;93179;-80
2023/07/06 00:32:27;;;;;;;14.18;2.95;;;;;;;;;;4988243;28;94916;-80
2023/07/06 00:34:55;;;;;;;10.13;2.80;;;;;;;;;;4971094;28;99505;-80
2023/07/06 00:37:22;;;;;;;15.55;2.83;;;;;;;;;;4983398;28;93713;-80
2023/07/06 00:39:49;;;;;;;7.70;2.67;;;;;;;;;;4986467;28;94817;-80
2023/07/06 00:42:16;;;;;;;7.15;2.50;;;;;;;;;;4992483;28;92362;-81
2023/07/06 00:44:47;;;;;;;8.45;3.08;;;;;;;;;;4988963;28;93160;-80
2023/07/06 00:47:14;;;;;;;8.55;2.92;;;;;;;;;;4989728;27;93467;-79
2023/07/06 00:49:41;;;;;;;7.78;2.85;;;;;;;;;;4992370;27;92650;-80
2023/07/06 00:52:10;;;;;;;10.30;3.58;;;;;;;;;;4974644;28;93619;-80
2023/07/06 00:54:38;;;;;;;10.98;2.90;;;;;;;;;;4983176;28;92489;-81
2023/07/06 00:57:05;;;;;;;8.05;2.90;;;;;;;;;;4993436;28;92875;-80
2023/07/06 00:59:33;;;;;;;8.52;3.10;;;;;;;;;;4985039;28;94048;-80
2023/07/06 01:01:59;;;;;;;8.27;3.00;;;;;;;;;;4995502;27;93014;-79
2023/07/06 01:04:28;;;;;;;9.70;3.13;;;;;;;;;;4988989;28;95520;-80
2023/07/06 01:06:55;;;;;;;9.50;3.13;;;;;;;;;;4989113;28;95206;-80
2023/07/06 01:09:22;;;;;;;9.73;2.75;;;;;;;;;;4992410;27;93592;-80
2023/07/06 01:11:49;;;;;;;9.40;3.33;;;;;;;;;;4994978;27;93753;-80
2023/07/06 01:14:16;;;;;;;8.95;2.78;;;;;;;;;;4994750;28;92471;-80
2023/07/06 01:16:50;;;;;;;9.52;3.50;;;;;;;;;;4984334;28;92737;-80
2023/07/06 01:19:16;;;;;;;10.77;3.03;;;;;;;;;;4992549;28;92549;-81
2023/07/06 01:21:50;;;;;;;9.13;3.30;;;;;;;;;;4989762;27;92179;-81
2023/07/06 01:24:17;;;;;;;7.40;2.90;;;;;;;;;;4995404;28;92446;-81
2023/07/06 01:27:00;;;;;;;8.98;3.00;;;;;;;;;;4990326;28;92477;-80
2023/07/06 01:29:45;;;;;;;11.60;3.05;;;;;;;;;;4985160;28;94863;-78
2023/07/06 01:32:14;;;;;;;9.20;2.83;;;;;;;;;;4990072;28;94164;-79
2023/07/06 01:34:53;;;;;;;8.00;3.13;;;;;;;;;;4982010;28;92815;-79
2023/07/06 01:37:23;;;;;;;8.55;2.95;;;;;;;;;;4986664;28;92670;-80
2023/07/06 01:39:50;;;;;;;9.07;3.10;;;;;;;;;;4991852;28;98458;-79
2023/07/06 01:42:25;;;;;;;10.43;3.50;;;;;;;;;;4997311;28;94155;-79
2023/07/06 01:44:52;;;;;;;7.88;3.25;;;;;;;;;;4991824;28;94284;-80
2023/07/06 01:47:19;;;;;;;;;;;;;;;;;;4995029;28;92194;-80
2023/07/06 01:49:46;;;;;;;7.60;2.88;;;;;;;;;;4993125;28;103978;-80
2023/07/06 01:52:28;;;;;;;9.88;3.28;;;;;;;;;;4990941;28;93327;-80
2023/07/06 01:55:02;;;;;;;9.85;3.30;;;;;;;;;;4990106;28;100176;-80
2023/07/06 01:57:32;;;;;;;9.07;3.40;;;;;;;;;;4991461;28;96269;-79
2023/07/06 02:00:14;;;;;;;12.02;3.30;;;;;;;;;;4993298;28;95652;-80
2023/07/06 02:02:52;;;;;;;9.23;2.88;;;;;;;;;;4990454;28;92626;-80
2023/07/06 02:05:19;;;;;;;10.57;3.00;;;;;;;;;;4989472;28;94669;-80
2023/07/06 02:07:46;;;;;;;8.95;3.15;;;;;;;;;;4990649;28;93143;-80
2023/07/06 02:10:14;;;;;;;8.32;3.15;;;;;;;;;;4994709;28;92540;-80
2023/07/06 02:12:42;;;;;;;7.32;3.10;;;;;;;;;;4994794;28;93455;-80
2023/07/06 02:15:10;;;;;;;10.13;3.20;;;;;;;;;;4997497;28;93620;-80
2023/07/06 02:17:36;;;;;;;7.47;2.70;;;;;;;;;;4988813;28;95405;-80
2023/07/06 02:20:04;;;;;;;10.85;3.30;;;;;;;;;;4989572;28;96659;-80
2023/07/06 02:22:32;;;;;;;11.20;3.08;;;;;;;;;;4991312;28;92477;-80
2023/07/06 02:24:59;;;;;;;8.88;3.13;;;;;;;;;;4991176;28;92780;-80
2023/07/06 02:27:25;;;;;;;11.52;3.00;;;;;;;;;;4981952;28;92999;-79
2023/07/06 02:29:52;;;;;;;10.68;3.28;;;;;;;;;;4989459;28;92563;-80
2023/07/06 02:32:18;;;;;;;8.48;2.80;;;;;;;;;;4992976;28;93105;-80
2023/07/06 02:34:45;;;;;;;9.05;2.80;;;;;;;;;;4990253;28;93138;-80
2023/07/06 02:37:12;;;;;;;9.38;2.83;;;;;;;;;;4991269;28;94162;-80
2023/07/06 02:39:41;;;;;;;9.90;3.28;;;;;;;;;;4984895;28;94380;-80
2023/07/06 02:42:07;;;;;;;10.43;2.97;;;;;;;;;;4993042;28;92489;-80
2023/07/06 02:44:34;;;;;;;8.25;2.88;;;;;;;;;;4999684;28;95062;-80
2023/07/06 02:47:00;;;;;;;11.05;3.45;;;;;;;;;;4991238;28;93139;-81
2023/07/06 02:49:27;;;;;;;8.98;3.38;;;;;;;;;;4992501;28;92416;-79
2023/07/06 02:51:55;;;;;;;9.20;3.15;;;;;;;;;;4991842;28;95556;-80
2023/07/06 02:54:22;;;;;;;8.60;2.83;;;;;;;;;;4990850;28;92370;-80
2023/07/06 02:56:48;;;;;;;7.93;3.00;;;;;;;;;;4990890;28;92689;-80
2023/07/06 02:59:15;;;;;;;8.32;2.92;;;;;;;;;;4982723;28;94456;-80
2023/07/06 03:01:41;;;;;;;7.00;2.55;;;;;;;;;;4990452;28;92290;-80
2023/07/06 03:04:11;;;;;;;10.68;2.75;;;;;;;;;;4990909;28;93009;-80
2023/07/06 03:06:38;;;;;;;9.88;3.10;;;;;;;;;;4989652;28;93452;-81
2023/07/06 03:09:07;;;;;;;10.48;3.00;;;;;;;;;;4989238;28;94964;-81
2023/07/06 03:11:34;;;;;;;7.45;2.78;;;;;;;;;;4988442;28;95643;-80
2023/07/06 03:14:02;;;;;;;7.60;2.40;;;;;;;;;;5002077;28;95776;-79
2023/07/06 03:16:39;;;;;;;7.63;2.53;;;;;;;;;;4990384;28;92929;-80
2023/07/06 03:19:10;;;;;;;7.45;2.55;;;;;;;;;;4989124;28;93117;-79
2023/07/06 03:21:40;;;;;;;8.32;2.75;;;;;;;;;;4985950;28;92366;-79
2023/07/06 03:24:07;;;;;;;8.27;3.00;;;;;;;;;;4987677;28;92947;-79
2023/07/06 03:26:34;;;;;;;10.13;2.95;;;;;;;;;;4990114;28;92186;-79
2023/07/06 03:29:03;;;;;;;11.38;2.90;;;;;;;;;;4990690;28;92513;-80
2023/07/06 03:31:32;;;;;;;11.27;3.10;;;;;;;;;;4971941;28;95582;-79
2023/07/06 03:33:59;;;;;;;9.65;3.00;;;;;;;;;;4988553;28;95289;-80
2023/07/06 03:36:26;;;;;;;9.27;3.15;;;;;;;;;;4993500;28;92435;-80
2023/07/06 03:38:52;;;;;;;12.38;3.30;;;;;;;;;;4990144;28;93300;-80
2023/07/06 03:41:19;;;;;;;9.77;3.22;;;;;;;;;;4987903;28;92918;-80
2023/07/06 03:43:46;;;;;;;9.15;3.38;;;;;;;;;;5000186;28;92982;-80
2023/07/06 03:46:12;;;;;;;9.57;3.13;;;;;;;;;;4988032;28;94232;-80
2023/07/06 03:48:44;;;;;;;9.13;2.80;;;;;;;;;;4992236;28;93085;-80
2023/07/06 03:51:13;;;;;;;9.15;3.17;;;;;;;;;;4986366;28;94042;-80
2023/07/06 03:53:40;;;;;;;9.60;3.00;;;;;;;;;;4995593;28;92463;-80
2023/07/06 03:56:07;;;;;;;9.38;2.97;;;;;;;;;;4999408;28;92632;-78
2023/07/06 03:58:34;;;;;;;11.68;3.47;;;;;;;;;;5012535;27;94873;-80
2023/07/06 04:01:00;;;;;;;8.70;3.03;;;;;;;;;;4995055;28;92749;-79
2023/07/06 04:03:27;;;;;;;11.10;3.38;;;;;;;;;;4991226;28;92409;-79
2023/07/06 04:05:53;;;;;;;8.68;3.08;;;;;;;;;;4980048;28;93440;-79
2023/07/06 04:08:22;;;;;;;8.02;3.30;;;;;;;;;;4991455;28;92725;-80
2023/07/06 04:10:48;;;;;;;8.98;3.15;;;;;;;;;;4994544;28;92779;-80
2023/07/06 04:13:15;;;;;;;11.52;3.05;;;;;;;;;;5004380;28;92464;-79
2023/07/06 04:15:45;;;;;;;8.23;3.55;;;;;;;;;;5002165;28;91756;-81
2023/07/06 04:18:12;;;;;;;8.85;3.20;;;;;;;;;;5002251;28;94325;-80
2023/07/06 04:20:38;;;;;;;7.80;3.03;;;;;;;;;;5003810;28;92400;-81
2023/07/06 04:23:05;;;;;;;9.57;3.10;;;;;;;;;;5000919;28;94803;-81
2023/07/06 04:25:33;;;;;;;8.75;3.00;;;;;;;;;;4994015;28;92367;-81
2023/07/06 04:28:05;;;;;;;13.35;3.80;;;;;;;;;;4992769;28;99874;-82
2023/07/06 04:30:35;;;;;;;8.20;3.28;;;;;;;;;;4992974;28;92348;-82
2023/07/06 04:33:03;;;;;;;11.57;3.42;;;;;;;;;;4982900;28;94324;-82
2023/07/06 04:35:31;;;;;;;10.48;3.15;;;;;;;;;;4979839;27;92593;-81
2023/07/06 04:38:01;;;;;;;9.27;3.10;;;;;;;;;;4988450;28;93919;-81
2023/07/06 04:40:28;;;;;;;8.45;3.28;;;;;;;;;;4978355;28;92411;-80
2023/07/06 04:42:55;;;;;;;9.00;3.15;;;;;;;;;;4991704;28;92643;-79
2023/07/06 04:45:24;;;;;;;10.38;3.20;;;;;;;;;;4991238;27;92498;-79
2023/07/06 04:47:53;;;;;;;11.00;3.30;;;;;;;;;;4979591;28;94928;-79
2023/07/06 04:50:22;;;;;;;9.25;3.03;;;;;;;;;;4983719;28;95471;-79
2023/07/06 04:52:57;;;;;;;13.38;2.67;;;;;;;;;;4980880;27;93940;-80
2023/07/06 04:55:25;;;;;;;12.35;3.42;;;;;;;;;;4988088;28;92428;-79
2023/07/06 04:57:54;;;;;;;13.68;3.75;;;;;;;;;;4986955;28;97323;-81
2023/07/06 05:00:26;;;;;;;12.63;3.00;;;;;;;;;;4987946;28;93147;-80
2023/07/06 05:03:00;;;;;;;10.75;3.35;;;;;;;;;;4989430;28;92445;-80
2023/07/06 05:05:28;;;;;;;11.68;3.40;;;;;;;;;;4984787;28;93727;-78
2023/07/06 05:07:55;;;;;;;9.48;3.17;;;;;;;;;;4987986;28;97327;-79
2023/07/06 05:10:22;;;;;;;9.65;3.30;;;;;;;;;;4988131;28;93004;-79
2023/07/06 05:12:48;;;;;;;13.57;3.33;;;;;;;;;;4990591;28;95013;-80
2023/07/06 05:15:15;;;;;;;11.27;3.20;;;;;;;;;;4993914;27;93001;-80
2023/07/06 05:17:41;;;;;;;10.27;3.03;;;;;;;;;;4987272;28;92866;-79
2023/07/06 05:20:10;;;;;;;9.88;3.03;;;;;;;;;;4988039;28;92766;-79
2023/07/06 05:22:39;;;;;;;11.90;3.10;;;;;;;;;;4987978;28;92507;-79
2023/07/06 05:25:07;;;;;;;10.52;3.13;;;;;;;;;;4990843;28;93827;-79
2023/07/06 05:27:34;;;;;;;10.10;3.10;;;;;;;;;;4987006;28;92689;-79
2023/07/06 05:30:00;;;;;;;12.55;3.42;;;;;;;;;;4987704;28;92695;-79
2023/07/06 05:32:27;;;;;;;9.15;3.00;;;;;;;;;;4987603;28;93028;-79
2023/07/06 05:34:54;;;;;;;9.55;3.30;;;;;;;;;;4990904;28;92595;-80
2023/07/06 05:37:21;;;;;;;10.35;3.00;;;;;;;;;;4989224;28;95304;-80
2023/07/06 05:40:04;;;;;;;8.48;2.60;;;;;;;;;;4991016;28;97759;-78
2023/07/06 05:42:31;;;;;;;8.65;2.65;;;;;;;;;;4989484;28;92806;-78
2023/07/06 05:44:57;;;;;;;8.10;2.33;;;;;;;;;;4992197;28;93141;-78
2023/07/06 05:47:24;;;;;;;7.15;2.30;;;;;;;;;;4994548;28;93041;-79
2023/07/06 05:49:51;;;;;;;9.48;2.47;;;;;;;;;;4972965;28;97724;-78
2023/07/06 05:52:17;;;;;;;6.28;2.20;;;;;;;;;;4990917;28;94613;-79
2023/07/06 05:54:44;;;;;;;6.50;2.03;;;;;;;;;;4992163;27;92059;-79
2023/07/06 05:57:10;;;;;;;7.18;2.20;;;;;;;;;;4986423;28;92689;-78
2023/07/06 05:59:41;;;;;;;7.10;2.20;;;;;;;;;;4997129;28;92574;-79
2023/07/06 06:02:08;;;;;;;8.63;2.40;;;;;;;;;;4989388;28;94903;-80
2023/07/06 06:04:37;;;;;;;6.72;2.20;;;;;;;;;;4989758;28;95208;-79
2023/07/06 06:07:06;;;;;;;7.47;2.20;;;;;;;;;;4992184;28;93303;-80
2023/07/06 06:09:33;;;;;;;6.35;1.85;;;;;;;;;;4993795;28;92505;-81
2023/07/06 06:12:00;;;;;;;6.18;2.30;;;;;;;;;;4989396;28;99377;-80
2023/07/06 06:14:27;;;;;;;8.00;2.08;;;;;;;;;;4999776;28;92815;-80
2023/07/06 06:16:54;;;;;;;6.30;2.13;;;;;;;;;;4976096;28;95510;-78
2023/07/06 06:19:21;;;;;;;6.25;2.20;;;;;;;;;;4976214;28;92486;-79
2023/07/06 06:21:49;;;;;;;7.28;2.50;;;;;;;;;;4990100;28;92530;-78
2023/07/06 06:24:17;;;;;;;7.22;2.22;;;;;;;;;;4990277;28;92665;-79
2023/07/06 06:26:44;;;;;;;7.05;2.30;;;;;;;;;;4987273;28;96836;-79
2023/07/06 06:29:11;;;;;;;7.28;2.30;;;;;;;;;;4992823;28;93802;-79
2023/07/06 06:31:42;;;;;;;8.70;2.20;;;;;;;;;;4992777;28;92817;-79
2023/07/06 06:34:10;;;;;;;10.23;2.55;;;;;;;;;;4990830;28;92470;-79
2023/07/06 06:36:36;;;;;;;7.70;2.30;;;;;;;;;;4975899;28;92607;-78
2023/07/06 06:39:04;;;;;;;9.45;2.45;;;;;;;;;;4983150;28;92962;-79
2023/07/06 06:41:31;;;;;;;6.97;2.47;;;;;;;;;;4987374;28;92564;-78
2023/07/06 06:43:57;;;;;;;6.45;2.38;;;;;;;;;;4999511;28;92809;-78
2023/07/06 06:46:24;;;;;;;9.20;2.85;;;;;;;;;;4988976;28;93087;-78
2023/07/06 06:48:50;;;;;;;10.02;2.38;;;;;;;;;;4991156;28;93146;-78
2023/07/06 06:51:17;;;;;;;7.97;2.30;;;;;;;;;;4988296;28;94797;-79
2023/07/06 06:53:44;;;;;;;9.65;2.65;;;;;;;;;;4990704;28;93083;-79
2023/07/06 06:56:11;;;;;;;9.52;3.03;;;;;;;;;;4991202;28;92706;-79
2023/07/06 06:58:37;;;;;;;8.75;2.60;;;;;;;;;;4999189;28;94094;-79
2023/07/06 07:01:05;;;;;;;9.52;2.80;;;;;;;;;;4988980;28;93460;-79
2023/07/06 07:03:34;;;;;;;6.93;2.67;;;;;;;;;;4986290;27;93055;-79
2023/07/06 07:06:11;;;;;;;8.52;2.78;;;;;;;;;;4984163;28;94761;-80
2023/07/06 07:08:39;;;;;;;8.18;2.53;;;;;;;;;;4978497;28;91752;-80
2023/07/06 07:11:06;;;;;;;7.82;2.58;;;;;;;;;;4989696;27;92995;-79
2023/07/06 07:13:50;;;;;;;6.80;2.90;;;;;;;;;;4991107;28;93722;-79
2023/07/06 07:16:16;;;;;;;;;;;;;;;;;;4989858;27;95208;-80
2023/07/06 07:18:43;;;;;;;6.57;2.70;;;;;;;;;;4989999;28;98429;-80
2023/07/06 07:21:12;;;;;;;7.35;2.45;;;;;;;;;;4989485;28;92858;-79
2023/07/06 07:23:42;;;;;;;8.63;2.80;;;;;;;;;;4988499;27;92849;-79
2023/07/06 07:26:19;;;;;;;5.85;2.25;;;;;;;;;;4993893;27;92942;-79
2023/07/06 07:28:48;;;;;;;7.55;2.65;;;;;;;;;;4992757;28;92687;-79
2023/07/06 07:31:17;;;;;;;7.38;2.78;;;;;;;;;;4990722;28;93043;-78
2023/07/06 07:33:46;;;;;;;7.50;2.70;;;;;;;;;;4989508;28;92840;-78
2023/07/06 07:36:14;;;;;;;9.38;2.97;;;;;;;;;;4983842;28;92528;-79
2023/07/06 07:38:40;;;;;;;;;;;;;;;;;;4988997;28;94088;-79
2023/07/06 07:41:07;;;;;;;8.68;2.60;;;;;;;;;;4990011;28;94850;-78
2023/07/06 07:43:35;;;;;;;10.13;3.15;;;;;;;;;;4997564;28;96446;-78
2023/07/06 07:46:03;;;;;;;10.98;2.83;;;;;;;;;;4988124;28;93103;-78
2023/07/06 07:48:33;;;;;;;6.03;2.35;;;;;;;;;;4989556;28;93275;-78
2023/07/06 07:51:02;;;;;;;7.13;2.30;;;;;;;;;;4978743;28;92757;-78
2023/07/06 07:53:33;;;;;;;8.15;2.60;;;;;;;;;;4986329;28;95707;-78
2023/07/06 07:55:59;;;;;;;8.48;2.92;;;;;;;;;;4989542;28;93170;-79
2023/07/06 07:58:26;;;;;;;7.68;3.05;;;;;;;;;;5003532;28;92800;-78
2023/07/06 08:00:56;;;;;;;7.93;2.70;;;;;;;;;;4989324;28;92514;-78
2023/07/06 08:03:23;;;;;;;7.78;2.65;;;;;;;;;;4989215;28;92473;-78
2023/07/06 08:06:09;;;;;;;8.60;2.70;;;;;;;;;;4986848;28;95466;-78
2023/07/06 08:08:37;;;;;;;8.75;2.70;;;;;;;;;;4981483;28;93446;-77
2023/07/06 08:11:08;;;;;;;9.13;2.97;;;;;;;;;;4968147;28;92815;-78
2023/07/06 08:13:39;;;;;;;7.28;3.78;;;;;;;;;;4966450;28;93109;-79
2023/07/06 08:16:06;;;;;;;8.73;2.88;;;;;;;;;;4967885;28;93073;-78
2023/07/06 08:18:32;;;;;;;7.10;2.90;;;;;;;;;;4968892;28;94500;-79
2023/07/06 08:21:00;;;;;;;7.43;3.10;;;;;;;;;;4986619;28;94362;-79
2023/07/06 08:23:48;;;;;;;8.45;3.15;;;;;;;;;;4985588;28;92782;-79
2023/07/06 08:26:15;;;;;;;8.48;3.22;;;;;;;;;;4973354;28;93630;-78
2023/07/06 08:28:42;;;;;;;8.10;3.30;;;;;;;;;;4990595;27;92505;-78
2023/07/06 08:31:16;;;;;;;8.75;3.10;;;;;;;;;;4968993;28;95224;-79
2023/07/06 08:33:47;;;;;;;8.45;3.50;;;;;;;;;;4974051;28;92626;-78
2023/07/06 08:36:15;;;;;;;9.32;3.13;;;;;;;;;;4970829;28;93050;-78
2023/07/06 08:38:43;;;;;;;6.82;3.42;;;;;;;;;;4976535;28;92478;-78
2023/07/06 08:41:26;;;;;;;6.55;3.20;;;;;;;;;;4968471;28;95199;-78
2023/07/06 08:43:53;;;;;;;9.18;3.10;;;;;;;;;;4986328;28;92667;-78
2023/07/06 08:46:20;;;;;;;8.65;3.35;;;;;;;;;;4988774;28;93940;-79
2023/07/06 08:48:47;;;;;;;8.93;3.30;;;;;;;;;;4989464;27;92033;-78
2023/07/06 08:51:16;;;;;;;7.40;2.95;;;;;;;;;;4988666;28;94054;-78
2023/07/06 08:53:57;;;;;;;6.18;3.20;;;;;;;;;;4985935;28;93558;-78
2023/07/06 08:56:25;;;;;;;8.60;3.10;;;;;;;;;;4985028;28;94855;-79
2023/07/06 08:58:54;;;;;;;7.47;3.40;;;;;;;;;;4962715;28;95117;-79
2023/07/06 09:01:23;;;;;;;7.53;3.20;;;;;;;;;;4978610;28;93102;-79
2023/07/06 09:03:59;;;;;;;6.90;3.15;;;;;;;;;;4988608;27;92487;-79
2023/07/06 09:06:27;;;;;;;8.25;3.42;;;;;;;;;;4987406;28;93441;-80
2023/07/06 09:08:55;;;;;;;7.40;3.25;;;;;;;;;;4970676;28;92514;-79
2023/07/06 09:11:25;;;;;;;8.05;3.00;;;;;;;;;;4976254;28;94190;-80
2023/07/06 09:13:56;;;;;;;7.30;2.92;;;;;;;;;;4963967;28;96685;-79
2023/07/06 09:16:23;;;;;;;6.82;3.15;;;;;;;;;;4991410;27;92423;-79
2023/07/06 09:18:52;;;;;;;6.30;2.88;;;;;;;;;;4992655;27;92508;-79
2023/07/06 09:21:27;;;;;;;7.25;3.00;;;;;;;;;;4989488;27;95584;-79
2023/07/06 09:23:56;;;;;;;6.30;2.90;;;;;;;;;;4991978;28;92697;-79
2023/07/06 09:26:28;;;;;;;8.18;3.15;;;;;;;;;;4993967;28;92872;-79
2023/07/06 09:29:09;;;;;;;6.43;2.97;;;;;;;;;;4974611;28;93841;-80
2023/07/06 09:31:36;;;;;;;8.43;3.00;;;;;;;;;;4980138;27;92513;-80
2023/07/06 09:34:07;;;;;;;6.25;2.90;;;;;;;;;;4983813;28;93738;-80
2023/07/06 09:36:34;;;;;;;7.82;3.40;;;;;;;;;;4979447;28;92700;-80
2023/07/06 09:39:03;;;;;;;8.90;3.58;;;;;;;;;;4992388;27;91746;-79
2023/07/06 09:41:32;;;;;;;7.65;3.08;;;;;;;;;;4981600;27;93689;-79
2023/07/06 09:44:03;;;;;;;7.85;3.00;;;;;;;;;;4978622;28;92489;-80
2023/07/06 09:46:35;;;;;;;7.68;3.30;;;;;;;;;;4990339;28;94994;-79
2023/07/06 09:49:10;;;;;;;6.43;2.88;;;;;;;;;;4994471;27;93344;-80
2023/07/06 09:51:43;;;;;;;7.50;2.80;;;;;;;;;;4991760;27;92643;-78
2023/07/06 09:54:17;;;;;;;6.93;3.25;;;;;;;;;;4992722;27;93555;-79
2023/07/06 09:56:44;;;;;;;6.60;2.78;;;;;;;;;;4985957;28;92458;-79
2023/07/06 09:59:13;;;;;;;7.35;2.72;;;;;;;;;;4982710;27;92775;-78
2023/07/06 10:01:46;;;;;;;5.40;2.70;;;;;;;;;;4985124;28;93059;-78
2023/07/06 10:04:28;;;;;;;6.45;2.90;;;;;;;;;;4971029;28;91947;-78
2023/07/06 10:06:55;;;;;;;5.53;2.88;;;;;;;;;;4969985;28;92844;-80
2023/07/06 10:09:21;;;;;;;;;;;;;;;;;;4968986;28;93795;-79
2023/07/06 10:11:53;;;;;;;7.13;2.80;;;;;;;;;;4980353;27;108946;-80
2023/07/06 10:14:26;;;;;;;5.82;2.90;;;;;;;;;;4989498;28;93015;-79
2023/07/06 10:16:59;;;;;;;8.77;3.05;;;;;;;;;;4985479;27;92453;-79
2023/07/06 10:19:32;;;;;;;6.72;3.10;;;;;;;;;;4966570;28;93081;-79
2023/07/06 10:22:13;;;;;;;6.13;3.10;;;;;;;;;;4968982;28;93573;-79
2023/07/06 10:24:48;;;;;;;7.25;2.90;;;;;;;;;;4973074;28;92438;-79
2023/07/06 10:27:17;;;;;;;7.05;2.92;;;;;;;;;;4991042;27;93100;-80
2023/07/06 10:29:50;;;;;;;6.90;3.05;;;;;;;;;;4977491;28;92146;-79
2023/07/06 10:32:24;;;;;;;7.65;2.95;;;;;;;;;;4978161;28;92893;-80
2023/07/06 10:34:58;;;;;;;7.47;3.25;;;;;;;;;;4981805;28;92951;-78
2023/07/06 10:37:27;;;;;;;6.90;3.25;;;;;;;;;;4985007;27;95422;-79
2023/07/06 10:40:04;;;;;;;6.65;2.75;;;;;;;;;;4979216;28;95292;-79
2023/07/06 10:42:33;;;;;;;6.78;2.92;;;;;;;;;;4989802;28;94957;-78
2023/07/06 10:45:02;;;;;;;7.80;3.28;;;;;;;;;;4992305;27;92713;-79
2023/07/06 10:47:33;;;;;;;7.28;2.95;;;;;;;;;;4990260;27;94014;-79
2023/07/06 10:50:22;;;;;;;7.82;3.20;;;;;;;;;;4991153;27;92981;-80
2023/07/06 10:53:10;;;;;;;8.65;3.00;;;;;;;;;;4987847;28;92553;-80
2023/07/06 10:55:37;;;;;;;6.90;2.60;;;;;;;;;;4982652;27;93376;-79
2023/07/06 10:58:19;;;;;;;6.95;2.80;;;;;;;;;;4993697;27;93477;-79
2023/07/06 11:00:46;;;;;;;7.10;2.85;;;;;;;;;;4991515;27;92813;-79
2023/07/06 11:03:15;;;;;;;7.53;2.90;;;;;;;;;;4974578;28;96419;-79
2023/07/06 11:05:52;;;;;;;8.23;2.80;;;;;;;;;;4985691;28;92567;-78
2023/07/06 11:08:40;;;;;;;7.10;3.15;;;;;;;;;;4978426;28;94108;-79
2023/07/06 11:11:16;;;;;;;10.05;2.90;;;;;;;;;;4977705;28;93228;-79
2023/07/06 11:13:49;;;;;;;6.32;2.60;;;;;;;;;;4989984;27;92433;-79
2023/07/06 11:16:26;;;;;;;7.15;2.60;;;;;;;;;;4991309;27;92965;-79
2023/07/06 11:18:55;;;;;;;7.28;2.60;;;;;;;;;;4989194;28;94459;-80
2023/07/06 11:21:22;;;;;;;9.95;2.75;;;;;;;;;;4990428;27;91719;-81
2023/07/06 11:23:57;;;;;;;6.45;2.63;;;;;;;;;;4993821;28;96621;-79
2023/07/06 11:26:33;;;;;;;6.72;2.97;;;;;;;;;;4990086;28;92604;-77
2023/07/06 11:29:01;;;;;;;6.32;2.55;;;;;;;;;;4987534;28;95042;-77
2023/07/06 11:31:37;;;;;;;7.63;3.00;;;;;;;;;;4988728;27;93430;-77
2023/07/06 11:34:07;;;;;;;7.68;3.10;;;;;;;;;;4980277;28;92501;-77
2023/07/06 11:36:39;;;;;;;8.07;3.08;;;;;;;;;;4977260;28;93758;-78
2023/07/06 11:39:19;;;;;;;11.70;3.20;;;;;;;;;;4990563;27;93364;-79
2023/07/06 11:41:46;;;;;;;6.80;2.92;;;;;;;;;;4985514;28;92681;-76
2023/07/06 11:44:15;;;;;;;7.65;2.97;;;;;;;;;;4983367;28;92528;-78
2023/07/06 11:46:43;;;;;;;6.72;2.90;;;;;;;;;;4980515;28;92702;-79
2023/07/06 11:49:10;;;;;;;6.90;2.65;;;;;;;;;;4972956;28;92717;-79
2023/07/06 11:51:37;;;;;;;7.30;2.58;;;;;;;;;;4989388;27;92969;-78
2023/07/06 11:54:05;;;;;;;6.50;2.38;;;;;;;;;;4993813;28;94906;-79
2023/07/06 11:56:35;;;;;;;7.20;2.45;;;;;;;;;;4994475;28;93747;-78
2023/07/06 11:59:15;;;;;;;6.57;2.70;;;;;;;;;;4991570;28;93886;-80
2023/07/06 12:01:45;;;;;;;6.38;2.20;;;;;;;;;;4988899;27;92458;-78
2023/07/06 12:04:12;;;;;;;5.72;2.30;;;;;;;;;;4993485;28;92701;-79
2023/07/06 12:06:39;;;;;;;6.05;2.25;;;;;;;;;;4994171;27;92579;-79
2023/07/06 12:09:08;;;;;;;5.63;2.20;;;;;;;;;;4991426;27;92366;-80
2023/07/06 12:11:37;;;;;;;5.05;2.20;;;;;;;;;;4987936;27;91885;-80
2023/07/06 12:14:05;;;;;;;4.38;2.20;;;;;;;;;;5001035;28;92478;-79
2023/07/06 12:16:43;;;;;;;5.78;2.20;;;;;;;;;;5000284;28;92470;-80
2023/07/06 12:19:11;;;;;;;5.13;1.90;;;;;;;;;;4999744;28;94762;-80
2023/07/06 12:21:42;;;;;;;5.82;2.13;;;;;;;;;;4999077;27;92377;-80
2023/07/06 12:24:14;;;;;;;6.03;2.03;;;;;;;;;;5003731;28;92980;-80
2023/07/06 12:26:45;;;;;;;5.63;2.00;;;;;;;;;;4983696;28;93172;-80
2023/07/06 12:29:16;;;;;;;5.45;2.00;;;;;;;;;;4997046;28;92861;-80
2023/07/06 12:31:44;;;;;;;3.53;1.75;;;;;;;;;;4982407;27;93348;-80
2023/07/06 12:34:16;;;;;;;6.10;2.30;;;;;;;;;;4992279;28;93014;-80
2023/07/06 12:36:43;;;;;;;4.75;1.95;;;;;;;;;;4982517;28;91768;-78
2023/07/06 12:39:13;;;;;;;5.53;2.10;;;;;;;;;;4992772;27;92964;-79
2023/07/06 12:41:39;;;;;;;5.38;1.90;;;;;;;;;;4992629;28;92974;-78
2023/07/06 12:44:10;;;;;;;4.90;1.88;;;;;;;;;;4986695;28;94827;-78
2023/07/06 12:46:37;;;;;;;4.90;2.10;;;;;;;;;;4990225;28;93118;-79
2023/07/06 12:49:10;;;;;;;4.80;1.90;;;;;;;;;;4994837;27;92979;-78
2023/07/06 12:51:40;;;;;;;4.22;1.83;;;;;;;;;;4989528;28;93133;-78
2023/07/06 12:54:09;;;;;;;4.43;1.83;;;;;;;;;;4992241;28;92890;-78
2023/07/06 12:56:37;;;;;;;4.15;1.88;;;;;;;;;;4990689;28;92843;-78
2023/07/06 12:59:04;;;;;;;3.83;1.83;;;;;;;;;;4989730;27;93195;-78
2023/07/06 13:01:33;;;;;;;3.72;1.77;;;;;;;;;;4989291;27;92568;-78
2023/07/06 13:04:03;;;;;;;4.60;1.90;;;;;;;;;;4988792;27;93225;-77
2023/07/06 13:06:29;;;;;;;3.95;2.00;;;;;;;;;;4968380;28;95526;-78
2023/07/06 13:09:00;;;;;;;3.55;1.90;;;;;;;;;;4983434;28;95538;-78
2023/07/06 13:11:27;;;;;;;4.80;1.60;;;;;;;;;;4997732;28;95172;-78
2023/07/06 13:13:55;;;;;;;3.53;1.80;;;;;;;;;;4984719;28;92555;-78
2023/07/06 13:16:22;;;;;;;4.57;1.70;;;;;;;;;;4979734;28;93525;-78
2023/07/06 13:18:49;;;;;;;4.28;1.67;;;;;;;;;;4980321;28;93089;-78
2023/07/06 13:21:17;;;;;;;3.13;1.40;;;;;;;;;;4988511;28;93080;-78
2023/07/06 13:23:45;;;;;;;4.78;1.83;;;;;;;;;;4987898;28;92871;-78
2023/07/06 13:26:11;;;;;;;4.85;1.65;;;;;;;;;;4985396;28;92434;-78
2023/07/06 13:28:38;;;;;;;3.20;1.35;;;;;;;;;;4986641;28;92452;-78
2023/07/06 13:31:05;;;;;;;6.57;1.50;;;;;;;;;;4989759;28;92676;-78
2023/07/06 13:33:32;;;;;;;;;;;;;;;;;;4984549;28;94900;-80
2023/07/06 13:35:59;;;;;;;5.65;1.48;;;;;;;;;;4988923;28;95742;-80
2023/07/06 13:38:28;;;;;;;5.35;1.40;;;;;;;;;;4989438;28;93166;-80
2023/07/06 13:40:55;;;;;;;6.22;1.58;;;;;;;;;;4985309;28;92683;-83
2023/07/06 13:43:23;;;;;;;5.15;1.20;;;;;;;;;;4981215;28;94238;-82
2023/07/06 13:45:50;;;;;;;8.27;1.58;;;;;;;;;;4985320;28;92565;-81
2023/07/06 13:48:18;;;;;;;1.98;1.10;;;;;;;;;;4969312;28;93941;-81
2023/07/06 13:50:45;;;;;;;5.22;1.40;;;;;;;;;;4988494;28;92930;-82
2023/07/06 13:53:12;;;;;;;;;;;;;;;;;;4990475;28;93764;-82
2023/07/06 13:55:38;;;;;;;5.50;1.70;;;;;;;;;;4981827;28;93519;-82
2023/07/06 13:58:06;;;;;;;4.50;1.23;;;;;;;;;;4982925;28;95625;-83
2023/07/06 14:00:33;;;;;;;6.63;1.70;;;;;;;;;;4971577;28;92499;-82
2023/07/06 14:02:59;;;;;;;;;;;;;;;;;;4989681;28;94256;-82
2023/07/06 14:05:26;;;;;;;2.92;1.40;;;;;;;;;;4987578;28;106532;-81
2023/07/06 14:07:53;;;;;;;6.07;1.60;;;;;;;;;;4989569;28;92551;-83
2023/07/06 14:10:19;;;;;;;3.85;1.45;;;;;;;;;;4987162;28;93076;-82
2023/07/06 14:12:48;;;;;;;4.18;1.48;;;;;;;;;;4986588;28;93189;-83
2023/07/06 14:15:14;;;;;;;3.47;1.20;;;;;;;;;;4989207;28;91645;-82
2023/07/06 14:17:43;;;;;;;4.47;1.40;;;;;;;;;;4990275;28;94926;-82
2023/07/06 14:20:11;;;;;;;4.40;1.50;;;;;;;;;;4992269;27;92451;-82
2023/07/06 14:22:39;;;;;;;5.15;1.30;;;;;;;;;;4983310;28;96417;-82
2023/07/06 14:25:18;;;;;;;4.93;1.30;;;;;;;;;;4985301;28;93563;-83
2023/07/06 14:27:49;;;;;;;4.20;1.30;;;;;;;;;;4982280;28;92567;-83
2023/07/06 14:30:17;;;;;;;3.88;1.33;;;;;;;;;;4993493;28;92454;-83
2023/07/06 14:32:44;;;;;;;4.70;1.73;;;;;;;;;;4987431;28;94118;-83
2023/07/06 14:35:12;;;;;;;5.50;1.58;;;;;;;;;;4994795;28;92539;-83
2023/07/06 14:37:39;;;;;;;3.35;1.23;;;;;;;;;;4983386;28;93131;-83
2023/07/06 14:40:08;;;;;;;3.05;1.33;;;;;;;;;;4997897;28;91772;-82
2023/07/06 14:42:35;;;;;;;2.70;1.30;;;;;;;;;;4983802;28;92371;-82
2023/07/06 14:45:03;;;;;;;5.13;1.40;;;;;;;;;;4996756;28;93035;-83
2023/07/06 14:47:32;;;;;;;4.60;1.38;;;;;;;;;;4980990;28;94871;-82
2023/07/06 14:50:00;;;;;;;4.10;1.30;;;;;;;;;;4972942;28;95808;-82
2023/07/06 14:52:27;;;;;;;5.25;1.70;;;;;;;;;;4970971;28;93717;-81
2023/07/06 14:54:54;;;;;;;4.97;1.48;;;;;;;;;;4988334;28;92816;-83